Stevenson, Connecticut
Current Conditions -  °F | °C
As of 12:58 PM on Thursday 30 Oct 2014 (Local Time) from KOXC Reporting Station
Broken Clouds Broken Clouds  
Wind Chill: 54°   Ceiling: 4500
Heat Index: 54°   Visibility: 10mi
Dew Point: 36°   Wind: 8mph
Humidity: 51%   Direction: 330°NNW
Pressure: 29.97"   Gusts: 17mph
Location:  41.38°N, 73.18°W
Report Text: KOXC 301658Z 33007G15KT 10SM BKN045 12/02 A2997
Loading
Personal Weather Stations






























Interactive Weather Map
Tropical Storm Tracking
New forecast layout! Learn more

10-Day Weather Forecast

Advertisements
Track Severe Weather on mobile